createdAt,value
2022-12-29T00:00:09.527Z,9.90
2022-12-29T00:03:01.297Z,9.80
2022-12-29T00:05:55.687Z,9.80
2022-12-29T00:08:41.707Z,9.90
2022-12-29T00:11:29.047Z,9.80
2022-12-29T00:14:33.711Z,9.80
2022-12-29T00:17:19.386Z,9.80
2022-12-29T00:20:23.848Z,9.80
2022-12-29T00:23:29.655Z,9.80
2022-12-29T00:26:36.243Z,9.80
2022-12-29T00:29:40.319Z,9.80
2022-12-29T00:32:44.243Z,9.80
2022-12-29T00:35:38.582Z,9.80
2022-12-29T00:38:43.114Z,9.80
2022-12-29T00:41:47.095Z,9.70
2022-12-29T00:44:32.575Z,9.80
2022-12-29T00:47:18.318Z,9.80
2022-12-29T00:50:04.399Z,9.80
2022-12-29T00:52:50.133Z,9.70
2022-12-29T00:55:39.429Z,9.70
2022-12-29T00:58:27.544Z,9.80
2022-12-29T01:01:13.310Z,9.80
2022-12-29T01:04:03.897Z,9.70
2022-12-29T01:06:50.107Z,9.70
2022-12-29T01:09:54.414Z,9.70
2022-12-29T01:12:42.714Z,9.70
2022-12-29T01:15:29.608Z,9.70
2022-12-29T01:18:15.185Z,9.70
2022-12-29T01:21:05.370Z,9.80
2022-12-29T01:23:51.485Z,9.80
2022-12-29T01:26:37.318Z,9.80
2022-12-29T01:29:23.383Z,9.80
2022-12-29T01:32:09.245Z,9.80
2022-12-29T01:34:54.868Z,9.80
2022-12-29T01:37:40.473Z,9.80
2022-12-29T01:40:26.507Z,9.80
2022-12-29T01:43:15.100Z,9.80
2022-12-29T01:46:00.626Z,9.80
2022-12-29T01:48:49.031Z,9.80
2022-12-29T01:51:58.667Z,9.70
2022-12-29T01:54:51.834Z,9.80
2022-12-29T01:57:42.086Z,9.80
2022-12-29T02:00:28.096Z,9.80
2022-12-29T02:03:13.913Z,9.80
2022-12-29T02:06:05.817Z,9.70
2022-12-29T02:08:54.782Z,9.70
2022-12-29T02:11:41.720Z,9.70
2022-12-29T02:14:27.675Z,9.70
2022-12-29T02:18:07.178Z,9.70
2022-12-29T02:21:21.355Z,9.70
2022-12-29T02:24:47.052Z,9.70
2022-12-29T02:27:49.634Z,9.70
2022-12-29T02:30:54.202Z,9.80
2022-12-29T02:33:57.126Z,9.70
2022-12-29T02:37:03.505Z,9.80
2022-12-29T02:40:12.943Z,9.70
2022-12-29T02:42:59.459Z,9.70
2022-12-29T02:45:51.345Z,9.80
2022-12-29T02:48:47.531Z,9.70
2022-12-29T02:51:51.950Z,9.70
2022-12-29T02:54:43.791Z,9.70
2022-12-29T02:57:35.141Z,9.70
2022-12-29T03:00:21.843Z,9.70
2022-12-29T03:04:03.214Z,9.70
2022-12-29T03:07:21.236Z,9.70
2022-12-29T03:10:38.534Z,9.70
2022-12-29T03:14:03.012Z,9.70
2022-12-29T03:16:54.709Z,9.70
2022-12-29T03:19:48.531Z,9.70
2022-12-29T03:22:40.611Z,9.70
2022-12-29T03:25:34.549Z,9.70
2022-12-29T03:28:28.022Z,9.70
2022-12-29T03:31:15.303Z,9.60
2022-12-29T03:34:01.969Z,9.70
2022-12-29T03:37:05.952Z,9.70
2022-12-29T03:39:52.408Z,9.70
2022-12-29T03:42:40.507Z,9.60
2022-12-29T03:45:27.429Z,9.70
2022-12-29T03:48:12.992Z,9.70
2022-12-29T03:51:00.184Z,9.60
2022-12-29T03:53:46.998Z,9.60
2022-12-29T03:56:32.530Z,9.60
2022-12-29T03:59:18.224Z,9.60
2022-12-29T04:02:04.974Z,9.60
2022-12-29T04:04:50.886Z,9.60
2022-12-29T04:07:37.801Z,9.60
2022-12-29T04:10:24.524Z,9.60
2022-12-29T04:13:13.945Z,9.60
2022-12-29T04:16:00.184Z,9.60
2022-12-29T04:18:46.787Z,9.60
2022-12-29T04:21:32.406Z,9.60
2022-12-29T04:24:18.155Z,9.60
2022-12-29T04:27:05.264Z,9.60
2022-12-29T04:29:50.752Z,9.60
2022-12-29T04:33:01.040Z,9.60
2022-12-29T04:35:48.867Z,9.60
2022-12-29T04:38:34.382Z,9.60
2022-12-29T04:41:23.152Z,9.60
2022-12-29T04:44:08.735Z,9.60
2022-12-29T04:46:54.341Z,9.60
2022-12-29T04:49:58.789Z,9.60
2022-12-29T04:52:57.677Z,9.60
2022-12-29T04:55:43.567Z,9.60
2022-12-29T04:58:29.567Z,9.60
2022-12-29T05:01:15.274Z,9.60
2022-12-29T05:04:00.789Z,9.60
2022-12-29T05:06:46.824Z,9.60
2022-12-29T05:09:32.611Z,9.60
2022-12-29T05:12:19.670Z,9.60
2022-12-29T05:15:14.563Z,9.60
2022-12-29T05:18:01.857Z,9.60
2022-12-29T05:20:48.780Z,9.60
2022-12-29T05:23:34.424Z,9.70
2022-12-29T05:26:24.621Z,9.60
2022-12-29T05:29:29.270Z,9.60
2022-12-29T05:32:14.968Z,9.60
2022-12-29T05:35:02.210Z,9.70
2022-12-29T05:37:48.478Z,9.70
2022-12-29T05:40:34.163Z,9.70
2022-12-29T05:43:24.323Z,9.70
2022-12-29T05:46:28.789Z,9.70
2022-12-29T05:49:33.404Z,9.70
2022-12-29T05:52:37.880Z,9.70
2022-12-29T05:55:23.802Z,9.60
2022-12-29T05:58:11.899Z,9.60
2022-12-29T06:00:57.435Z,9.60
2022-12-29T06:03:47.992Z,9.60
2022-12-29T06:06:34.219Z,9.60
2022-12-29T06:09:20.259Z,9.70
2022-12-29T06:12:06.608Z,9.60
2022-12-29T06:14:52.897Z,9.60
2022-12-29T06:17:38.296Z,9.60
2022-12-29T06:20:24.924Z,9.70
2022-12-29T06:23:13.104Z,9.70
2022-12-29T06:25:58.876Z,9.60
2022-12-29T06:28:44.429Z,9.60
2022-12-29T06:31:31.205Z,9.70
2022-12-29T06:34:16.853Z,9.70
2022-12-29T06:37:03.234Z,9.70
2022-12-29T06:39:48.837Z,9.70
2022-12-29T06:42:34.722Z,9.70
2022-12-29T06:45:41.048Z,9.70
2022-12-29T06:48:26.711Z,9.70
2022-12-29T06:51:12.294Z,9.60
2022-12-29T06:53:58.105Z,9.70
2022-12-29T06:56:43.681Z,9.70
2022-12-29T06:59:29.358Z,9.70
2022-12-29T07:02:15.992Z,9.70
2022-12-29T07:05:02.134Z,9.70
2022-12-29T07:07:47.989Z,9.70
2022-12-29T07:10:33.674Z,9.70
2022-12-29T07:13:19.504Z,9.70
2022-12-29T07:16:09.629Z,9.70
2022-12-29T07:18:55.388Z,9.70
2022-12-29T07:21:46.818Z,9.70
2022-12-29T07:24:32.445Z,9.70
2022-12-29T07:27:18.163Z,9.70
2022-12-29T07:30:04.215Z,9.70
2022-12-29T07:32:49.955Z,9.70
2022-12-29T07:35:36.090Z,9.60
2022-12-29T07:38:21.884Z,9.70
2022-12-29T07:41:07.673Z,9.70
2022-12-29T07:43:53.337Z,9.70
2022-12-29T07:46:57.510Z,9.70
2022-12-29T07:49:43.387Z,9.70
2022-12-29T07:52:28.967Z,9.70
2022-12-29T07:55:15.992Z,9.70
2022-12-29T07:58:02.116Z,9.70
2022-12-29T08:00:47.658Z,9.70
2022-12-29T08:03:33.568Z,9.70
2022-12-29T08:06:19.545Z,9.80
2022-12-29T08:09:12.462Z,9.80
2022-12-29T08:12:03.095Z,9.80
2022-12-29T08:14:48.583Z,9.80
2022-12-29T08:17:35.412Z,9.80
2022-12-29T08:20:25.013Z,9.90
2022-12-29T08:23:12.064Z,9.90
2022-12-29T08:26:07.573Z,9.90
2022-12-29T08:28:55.731Z,9.90
2022-12-29T08:31:43.245Z,9.90
2022-12-29T08:34:31.985Z,9.90
2022-12-29T08:37:18.796Z,9.80
2022-12-29T08:40:05.754Z,10.00
2022-12-29T08:42:51.796Z,9.90
2022-12-29T08:45:37.578Z,10.10
2022-12-29T08:48:23.352Z,10.20
2022-12-29T08:51:09.510Z,10.20
2022-12-29T08:53:54.905Z,10.20
2022-12-29T08:56:41.104Z,10.20
2022-12-29T08:59:27.474Z,10.30
2022-12-29T09:02:18.767Z,10.30
2022-12-29T09:05:07.970Z,10.30
2022-12-29T09:07:53.680Z,10.30
2022-12-29T09:10:41.803Z,10.20
2022-12-29T09:13:27.319Z,10.30
2022-12-29T09:16:13.636Z,10.30
2022-12-29T09:18:59.147Z,10.30
2022-12-29T09:21:44.690Z,10.30
2022-12-29T09:24:30.317Z,10.50
2022-12-29T09:27:15.856Z,10.50
2022-12-29T09:30:04.534Z,10.50
2022-12-29T09:32:55.000Z,10.60
2022-12-29T09:35:45.550Z,10.60
2022-12-29T09:38:31.649Z,10.70
2022-12-29T09:41:26.644Z,10.70
2022-12-29T09:44:27.112Z,10.60
2022-12-29T09:47:15.617Z,10.70
2022-12-29T09:50:15.897Z,10.60
2022-12-29T09:53:38.859Z,10.60
2022-12-29T09:56:26.153Z,10.70
2022-12-29T10:00:05.416Z,10.80
2022-12-29T10:03:03.717Z,10.80
2022-12-29T10:05:53.476Z,10.80
2022-12-29T10:08:44.211Z,10.80
2022-12-29T10:11:59.462Z,10.80
2022-12-29T10:15:26.093Z,10.80
2022-12-29T10:18:37.654Z,10.70
2022-12-29T10:21:45.031Z,10.70
2022-12-29T10:24:31.775Z,10.70
2022-12-29T10:27:18.400Z,10.60
2022-12-29T10:30:04.870Z,10.50
2022-12-29T10:32:53.153Z,10.50
2022-12-29T10:35:41.612Z,10.50
2022-12-29T10:38:35.137Z,10.50
2022-12-29T10:41:33.763Z,10.40
2022-12-29T10:44:22.884Z,10.50
2022-12-29T10:47:14.762Z,10.50
2022-12-29T10:50:02.413Z,10.50
2022-12-29T10:52:49.182Z,10.50
2022-12-29T10:55:42.943Z,10.50
2022-12-29T10:58:30.230Z,10.50
2022-12-29T11:01:17.049Z,10.50
2022-12-29T11:04:29.341Z,10.40
2022-12-29T11:07:25.099Z,10.40
2022-12-29T11:10:35.417Z,10.40
2022-12-29T11:13:36.719Z,10.30
2022-12-29T11:16:31.761Z,10.30
2022-12-29T11:19:25.850Z,10.40
2022-12-29T11:22:22.214Z,10.40
2022-12-29T11:25:13.967Z,10.40
2022-12-29T11:28:14.875Z,10.40
2022-12-29T11:31:02.584Z,10.40
2022-12-29T11:33:50.365Z,10.50
2022-12-29T11:36:37.277Z,10.50
2022-12-29T11:39:39.260Z,10.50
2022-12-29T11:43:16.468Z,10.40
2022-12-29T11:46:05.599Z,10.40
2022-12-29T11:48:51.635Z,10.40
2022-12-29T11:51:50.341Z,10.40
2022-12-29T11:54:38.500Z,10.40
2022-12-29T11:57:25.845Z,10.40
2022-12-29T12:00:26.129Z,10.40
2022-12-29T12:03:22.145Z,10.40
2022-12-29T12:06:15.440Z,10.40
2022-12-29T12:09:06.768Z,10.40
2022-12-29T12:11:54.976Z,10.30
2022-12-29T12:14:53.292Z,10.30
2022-12-29T12:17:58.187Z,10.30
2022-12-29T12:25:23.009Z,10.30
2022-12-29T12:28:24.889Z,10.30
2022-12-29T12:31:25.848Z,10.30
2022-12-29T12:34:33.808Z,10.30
2022-12-29T12:37:50.244Z,10.30
2022-12-29T12:41:21.293Z,10.30
2022-12-29T12:44:25.484Z,10.30
2022-12-29T12:47:13.927Z,10.20
2022-12-29T12:50:37.249Z,10.30
2022-12-29T12:53:31.824Z,10.30
2022-12-29T12:56:27.043Z,10.30
2022-12-29T12:59:27.820Z,10.30
2022-12-29T13:02:31.517Z,10.30
2022-12-29T13:05:33.814Z,10.30
2022-12-29T13:08:50.537Z,10.30
2022-12-29T13:12:00.908Z,10.30
2022-12-29T13:15:21.613Z,10.30
2022-12-29T13:18:21.308Z,10.30
2022-12-29T13:21:30.195Z,10.30
2022-12-29T13:24:45.874Z,10.30
2022-12-29T13:27:53.658Z,10.30
2022-12-29T13:30:54.894Z,10.30
2022-12-29T13:34:06.874Z,10.30
2022-12-29T13:37:05.238Z,10.40
2022-12-29T13:39:58.860Z,10.30
2022-12-29T13:42:45.581Z,10.30
2022-12-29T13:45:33.641Z,10.30
2022-12-29T13:48:27.057Z,10.30
2022-12-29T13:51:13.704Z,10.30
2022-12-29T13:54:02.817Z,10.30
2022-12-29T13:57:37.492Z,10.30
2022-12-29T14:00:26.631Z,10.30
2022-12-29T14:03:30.874Z,10.30
2022-12-29T14:06:31.671Z,10.30
2022-12-29T14:09:37.287Z,10.20
2022-12-29T14:12:34.554Z,10.20
2022-12-29T14:15:24.121Z,10.20
2022-12-29T14:18:19.251Z,10.20
2022-12-29T14:21:16.955Z,10.20
2022-12-29T14:24:37.728Z,10.20
2022-12-29T14:27:23.915Z,10.20
2022-12-29T14:30:52.486Z,10.20
2022-12-29T14:33:38.016Z,10.10
2022-12-29T14:36:34.127Z,10.10
2022-12-29T14:39:40.057Z,10.10
2022-12-29T14:42:25.916Z,10.10
2022-12-29T14:45:15.166Z,10.10
2022-12-29T14:48:01.150Z,10.10
2022-12-29T14:50:46.914Z,10.00
2022-12-29T14:53:52.276Z,9.90
2022-12-29T14:56:41.213Z,9.90
2022-12-29T14:59:28.439Z,10.00
2022-12-29T15:02:22.609Z,10.00
2022-12-29T15:05:30.459Z,10.00
2022-12-29T15:08:20.478Z,9.90
2022-12-29T15:11:24.931Z,9.90
2022-12-29T15:14:30.489Z,9.90
2022-12-29T15:17:30.085Z,9.90
2022-12-29T15:20:29.441Z,9.80
2022-12-29T15:23:17.664Z,9.80
2022-12-29T15:26:08.642Z,9.80
2022-12-29T15:28:55.704Z,9.80
2022-12-29T15:31:49.746Z,9.80
2022-12-29T15:34:35.841Z,9.80
2022-12-29T15:37:36.789Z,9.80
2022-12-29T15:40:33.301Z,9.70
2022-12-29T15:43:53.394Z,9.70
2022-12-29T15:46:39.083Z,9.70
2022-12-29T15:49:31.876Z,9.70
2022-12-29T15:52:23.849Z,9.70
2022-12-29T15:55:31.011Z,9.70
2022-12-29T15:58:24.215Z,9.60
2022-12-29T16:01:24.341Z,9.60
2022-12-29T16:04:10.542Z,9.60
2022-12-29T16:07:00.634Z,9.60
2022-12-29T16:09:45.984Z,9.60
2022-12-29T16:12:36.040Z,9.50
2022-12-29T16:15:22.326Z,9.60
2022-12-29T16:18:27.312Z,9.70
2022-12-29T16:21:24.372Z,9.70
2022-12-29T16:24:20.559Z,9.70
2022-12-29T16:27:06.401Z,9.70
2022-12-29T16:29:55.794Z,9.70
2022-12-29T16:32:47.543Z,9.70
2022-12-29T16:35:46.938Z,9.70
2022-12-29T16:38:35.132Z,9.70
2022-12-29T16:41:31.843Z,9.80
2022-12-29T16:44:22.937Z,9.70
2022-12-29T16:47:11.734Z,9.80
2022-12-29T16:50:13.185Z,9.80
2022-12-29T16:52:59.050Z,9.80
2022-12-29T16:55:48.904Z,9.80
2022-12-29T16:58:36.213Z,9.70
2022-12-29T17:01:22.432Z,9.70
2022-12-29T17:04:11.281Z,9.60
2022-12-29T17:06:57.003Z,9.70
2022-12-29T17:09:42.613Z,9.70
2022-12-29T17:12:30.612Z,9.80
2022-12-29T17:15:29.799Z,9.80
2022-12-29T17:18:15.247Z,9.80
2022-12-29T17:21:01.142Z,9.90
2022-12-29T17:23:46.819Z,9.80
2022-12-29T17:26:32.431Z,9.90
2022-12-29T17:29:38.613Z,9.90
2022-12-29T17:32:24.439Z,9.90
2022-12-29T17:35:15.638Z,9.90
2022-12-29T17:38:01.229Z,9.90
2022-12-29T17:40:47.545Z,9.90
2022-12-29T17:43:37.010Z,9.90
2022-12-29T17:46:23.184Z,9.90
2022-12-29T17:49:18.967Z,9.90
2022-12-29T17:52:05.500Z,9.90
2022-12-29T17:56:06.696Z,9.90
2022-12-29T17:58:52.300Z,9.90
2022-12-29T18:01:42.272Z,9.90
2022-12-29T18:04:31.054Z,9.90
2022-12-29T18:07:16.753Z,9.90
2022-12-29T18:10:03.215Z,9.90
2022-12-29T18:12:51.893Z,9.90
2022-12-29T18:15:37.671Z,9.90
2022-12-29T18:18:25.880Z,9.80
2022-12-29T18:21:22.583Z,9.80
2022-12-29T18:24:13.995Z,9.80
2022-12-29T18:26:59.473Z,9.80
2022-12-29T18:29:46.707Z,9.80
2022-12-29T18:32:32.291Z,9.80
2022-12-29T18:35:25.814Z,9.80
2022-12-29T18:38:11.299Z,9.80
2022-12-29T18:40:58.123Z,9.80
2022-12-29T18:43:44.344Z,9.80
2022-12-29T18:46:30.259Z,9.80
2022-12-29T18:49:15.923Z,9.80
2022-12-29T18:52:01.655Z,9.80
2022-12-29T18:54:47.165Z,9.80
2022-12-29T18:57:33.008Z,9.80
2022-12-29T19:00:21.250Z,9.80
2022-12-29T19:03:13.462Z,9.80
2022-12-29T19:06:00.413Z,9.70
2022-12-29T19:08:45.876Z,9.80
2022-12-29T19:11:31.621Z,9.70
2022-12-29T19:14:17.578Z,9.80
2022-12-29T19:17:02.860Z,9.70
2022-12-29T19:19:48.360Z,9.70
2022-12-29T19:22:34.035Z,9.60
2022-12-29T19:25:19.819Z,9.60
2022-12-29T19:28:07.214Z,9.70
2022-12-29T19:30:57.058Z,9.60
2022-12-29T19:33:42.827Z,9.70
2022-12-29T19:36:28.371Z,9.70
2022-12-29T19:39:14.106Z,9.60
2022-12-29T19:42:05.118Z,9.70
2022-12-29T19:44:51.258Z,9.70
2022-12-29T19:47:37.065Z,9.70
2022-12-29T19:50:22.532Z,9.70
2022-12-29T19:53:07.933Z,9.70
2022-12-29T19:55:53.587Z,9.70
2022-12-29T19:58:45.174Z,9.70
2022-12-29T20:01:32.740Z,9.70
2022-12-29T20:04:18.378Z,9.70
2022-12-29T20:07:03.990Z,9.70
2022-12-29T20:09:49.871Z,9.60
2022-12-29T20:12:37.830Z,9.70
2022-12-29T20:15:23.368Z,9.70
2022-12-29T20:18:14.175Z,9.70
2022-12-29T20:21:03.771Z,9.60
2022-12-29T20:23:53.451Z,9.70
2022-12-29T20:26:39.068Z,9.70
2022-12-29T20:29:24.972Z,9.60
2022-12-29T20:32:15.145Z,9.60
2022-12-29T20:35:01.037Z,9.60
2022-12-29T20:38:14.125Z,9.70
2022-12-29T20:40:59.662Z,9.70
2022-12-29T20:43:45.654Z,9.70
2022-12-29T20:46:36.612Z,9.70
2022-12-29T20:49:25.640Z,9.70
2022-12-29T20:52:11.506Z,9.70
2022-12-29T20:54:57.006Z,9.70
2022-12-29T20:58:23.098Z,9.70
2022-12-29T21:00:48.482Z,9.70
2022-12-29T21:03:34.409Z,9.70
2022-12-29T21:06:21.362Z,9.70
2022-12-29T21:09:07.748Z,9.70
2022-12-29T21:11:52.905Z,9.70
2022-12-29T21:14:43.732Z,9.70
2022-12-29T21:17:31.608Z,9.70
2022-12-29T21:20:20.403Z,9.70
2022-12-29T21:23:07.080Z,9.80
2022-12-29T21:25:53.720Z,9.80
2022-12-29T21:28:40.146Z,9.80
2022-12-29T21:31:28.988Z,9.80
2022-12-29T21:34:14.829Z,9.80
2022-12-29T21:37:00.536Z,9.80
2022-12-29T21:39:46.167Z,9.70
2022-12-29T21:42:32.151Z,9.70
2022-12-29T21:45:26.945Z,9.80
2022-12-29T21:48:21.167Z,9.80
2022-12-29T21:51:30.876Z,9.80
2022-12-29T21:54:44.565Z,9.80
2022-12-29T21:57:48.960Z,9.80
2022-12-29T22:01:12.876Z,9.80
2022-12-29T22:04:17.542Z,9.80
2022-12-29T22:07:23.284Z,9.80
2022-12-29T22:10:28.391Z,9.80
2022-12-29T22:13:14.348Z,9.70
2022-12-29T22:16:02.651Z,9.70
2022-12-29T22:18:48.168Z,9.70
2022-12-29T22:21:33.747Z,9.70
2022-12-29T22:24:19.399Z,9.70
2022-12-29T22:27:04.997Z,9.70
2022-12-29T22:29:50.722Z,9.60
2022-12-29T22:32:36.503Z,9.60
2022-12-29T22:35:22.383Z,9.60
2022-12-29T22:38:08.128Z,9.60
2022-12-29T22:41:00.550Z,9.50
2022-12-29T22:43:46.297Z,9.50
2022-12-29T22:46:32.102Z,9.50
2022-12-29T22:49:17.848Z,9.50
2022-12-29T22:52:04.511Z,9.50
2022-12-29T22:54:50.230Z,9.40
2022-12-29T22:57:36.397Z,9.50
2022-12-29T23:00:22.621Z,9.50
2022-12-29T23:03:08.369Z,9.50
2022-12-29T23:05:59.022Z,9.50
2022-12-29T23:08:47.288Z,9.50
2022-12-29T23:11:33.090Z,9.50
2022-12-29T23:14:18.850Z,9.50
2022-12-29T23:17:04.299Z,9.50
2022-12-29T23:19:50.034Z,9.50
2022-12-29T23:22:35.655Z,9.50
2022-12-29T23:25:21.477Z,9.40
2022-12-29T23:28:08.738Z,9.40
2022-12-29T23:30:54.616Z,9.40
2022-12-29T23:33:41.142Z,9.50
2022-12-29T23:36:27.237Z,9.40
2022-12-29T23:39:23.319Z,9.50
2022-12-29T23:42:08.984Z,9.50
2022-12-29T23:44:54.627Z,9.50
2022-12-29T23:47:40.394Z,9.40
2022-12-29T23:50:26.093Z,9.50
2022-12-29T23:53:12.128Z,9.50
2022-12-29T23:55:58.166Z,9.50
2022-12-29T23:58:44.412Z,9.50
